createdAt,value
2018-05-06T00:00:05.014Z,17.90
2018-05-06T00:02:31.414Z,17.90
2018-05-06T00:04:58.097Z,17.90
2018-05-06T00:07:24.462Z,18.00
2018-05-06T00:09:50.886Z,17.90
2018-05-06T00:12:17.281Z,17.80
2018-05-06T00:14:43.761Z,17.80
2018-05-06T00:17:10.122Z,17.70
2018-05-06T00:19:36.563Z,17.70
2018-05-06T00:22:02.961Z,17.60
2018-05-06T00:24:29.686Z,17.60
2018-05-06T00:26:56.834Z,17.60
2018-05-06T00:29:23.237Z,17.50
2018-05-06T00:31:49.624Z,17.50
2018-05-06T00:34:16.088Z,17.50
2018-05-06T00:36:42.441Z,17.50
2018-05-06T00:39:09.552Z,17.40
2018-05-06T00:41:35.969Z,17.40
2018-05-06T00:44:02.522Z,17.40
2018-05-06T00:46:28.947Z,17.40
2018-05-06T00:48:55.392Z,17.40
2018-05-06T00:51:21.768Z,17.40
2018-05-06T00:53:48.967Z,17.30
2018-05-06T00:56:15.334Z,17.30
2018-05-06T00:58:42.529Z,17.30
2018-05-06T01:01:08.893Z,17.30
2018-05-06T01:03:35.288Z,17.20
2018-05-06T01:06:02.511Z,17.10
2018-05-06T01:08:28.985Z,17.10
2018-05-06T01:10:55.458Z,17.10
2018-05-06T01:13:21.828Z,17.10
2018-05-06T01:15:48.938Z,17.10
2018-05-06T01:18:15.386Z,17.00
2018-05-06T01:20:41.761Z,17.00
2018-05-06T01:23:08.122Z,16.80
2018-05-06T01:25:34.567Z,16.90
2018-05-06T01:28:00.950Z,16.90
2018-05-06T01:30:28.082Z,16.80
2018-05-06T01:32:54.803Z,16.80
2018-05-06T01:35:21.918Z,16.80
2018-05-06T01:37:48.286Z,16.80
2018-05-06T01:40:14.658Z,16.80
2018-05-06T01:42:41.011Z,16.70
2018-05-06T01:45:08.141Z,16.60
2018-05-06T01:47:34.493Z,16.60
2018-05-06T01:50:00.866Z,16.60
2018-05-06T01:52:27.250Z,16.70
2018-05-06T01:54:58.857Z,16.50
2018-05-06T01:57:25.240Z,16.50
2018-05-06T01:59:51.634Z,16.50
2018-05-06T02:02:18.726Z,16.40
2018-05-06T02:04:45.141Z,16.40
2018-05-06T02:07:11.595Z,16.40
2018-05-06T02:09:38.735Z,16.40
2018-05-06T02:12:05.857Z,16.40
2018-05-06T02:14:32.366Z,16.40
2018-05-06T02:16:58.737Z,16.40
2018-05-06T02:19:25.098Z,16.30
2018-05-06T02:21:51.479Z,16.30
2018-05-06T02:24:18.782Z,16.30
2018-05-06T02:26:45.150Z,16.30
2018-05-06T02:29:12.295Z,16.20
2018-05-06T02:31:38.813Z,16.20
2018-05-06T02:34:05.526Z,16.20
2018-05-06T02:36:31.902Z,16.20
2018-05-06T02:38:58.262Z,16.10
2018-05-06T02:41:24.686Z,16.10
2018-05-06T02:43:51.997Z,16.00
2018-05-06T02:46:18.343Z,16.00
2018-05-06T02:48:44.743Z,16.00
2018-05-06T02:51:11.134Z,16.00
2018-05-06T02:53:38.663Z,15.90
2018-05-06T02:56:05.067Z,15.90
2018-05-06T02:58:31.458Z,15.90
2018-05-06T03:00:58.585Z,15.90
2018-05-06T03:03:25.161Z,15.90
2018-05-06T03:05:51.569Z,15.90
2018-05-06T03:08:18.697Z,15.90
2018-05-06T03:10:45.098Z,15.80
2018-05-06T03:13:11.782Z,15.80
2018-05-06T03:15:38.431Z,15.80
2018-05-06T03:18:05.575Z,15.70
2018-05-06T03:20:32.684Z,15.70
2018-05-06T03:22:59.274Z,15.70
2018-05-06T03:25:25.669Z,15.70
2018-05-06T03:27:52.050Z,15.70
2018-05-06T03:30:18.419Z,15.60
2018-05-06T03:32:44.794Z,15.60
2018-05-06T03:35:11.920Z,15.60
2018-05-06T03:37:38.357Z,15.60
2018-05-06T03:40:04.755Z,15.60
2018-05-06T03:42:31.133Z,15.60
2018-05-06T03:44:57.523Z,15.50
2018-05-06T03:47:23.921Z,15.50
2018-05-06T03:49:50.298Z,15.50
2018-05-06T03:52:16.734Z,15.40
2018-05-06T03:54:43.122Z,15.40
2018-05-06T03:57:21.637Z,15.40
2018-05-06T04:00:00.123Z,15.40
2018-05-06T04:02:30.306Z,15.40
2018-05-06T04:04:56.838Z,15.30
2018-05-06T04:07:23.216Z,15.40
2018-05-06T04:09:51.566Z,15.30
2018-05-06T04:12:17.994Z,15.30
2018-05-06T04:14:44.497Z,15.30
2018-05-06T04:17:10.922Z,15.30
2018-05-06T04:19:37.373Z,15.40
2018-05-06T04:22:04.523Z,15.20
2018-05-06T04:24:31.878Z,15.20
2018-05-06T04:26:58.254Z,15.20
2018-05-06T04:29:24.643Z,15.20
2018-05-06T04:31:51.014Z,15.10
2018-05-06T04:34:17.772Z,15.20
2018-05-06T04:36:44.873Z,15.20
2018-05-06T04:39:11.274Z,15.20
2018-05-06T04:41:37.753Z,15.20
2018-05-06T04:44:05.084Z,15.20
2018-05-06T04:46:31.490Z,15.20
2018-05-06T04:48:58.579Z,15.30
2018-05-06T04:51:24.975Z,15.30
2018-05-06T04:53:51.531Z,15.30
2018-05-06T04:56:17.887Z,15.30
2018-05-06T04:58:45.002Z,15.40
2018-05-06T05:01:11.366Z,15.40
2018-05-06T05:03:37.987Z,15.40
2018-05-06T05:06:04.371Z,15.50
2018-05-06T05:08:30.730Z,15.50
2018-05-06T05:10:57.118Z,15.60
2018-05-06T05:13:23.473Z,15.60
2018-05-06T05:15:50.591Z,15.80
2018-05-06T05:18:16.978Z,15.70
2018-05-06T05:20:43.383Z,15.90
2018-05-06T05:23:10.512Z,16.00
2018-05-06T05:25:36.885Z,16.00
2018-05-06T05:28:03.253Z,16.00
2018-05-06T05:30:29.641Z,16.10
2018-05-06T05:32:56.988Z,16.20
2018-05-06T05:35:23.370Z,16.30
2018-05-06T05:37:50.468Z,16.50
2018-05-06T05:40:17.634Z,16.60
2018-05-06T05:42:44.078Z,16.60
2018-05-06T05:45:10.452Z,16.70
2018-05-06T05:47:36.970Z,16.80
2018-05-06T05:50:03.271Z,17.20
2018-05-06T05:52:29.647Z,17.20
2018-05-06T05:54:56.058Z,17.50
2018-05-06T05:57:22.413Z,17.80
2018-05-06T05:59:48.781Z,17.90
2018-05-06T06:02:15.909Z,18.50
2018-05-06T06:04:42.599Z,18.40
2018-05-06T06:07:08.946Z,18.70
2018-05-06T06:09:35.402Z,19.00
2018-05-06T06:12:01.786Z,19.20
2018-05-06T06:14:28.434Z,19.50
2018-05-06T06:16:54.826Z,19.70
2018-05-06T06:19:21.961Z,20.20
2018-05-06T06:21:48.318Z,20.20
2018-05-06T06:24:14.894Z,20.60
2018-05-06T06:26:41.384Z,20.80
2018-05-06T06:29:07.734Z,21.00
2018-05-06T06:31:34.107Z,21.30
2018-05-06T06:34:00.723Z,21.60
2018-05-06T06:36:27.077Z,21.80
2018-05-06T06:38:53.468Z,22.10
2018-05-06T06:41:19.866Z,22.30
2018-05-06T06:43:46.558Z,22.70
2018-05-06T06:46:12.970Z,22.90
2018-05-06T06:48:39.362Z,23.20
2018-05-06T06:51:05.742Z,23.40
2018-05-06T06:53:32.398Z,23.60
2018-05-06T06:55:58.777Z,23.70
2018-05-06T06:58:25.914Z,24.10
2018-05-06T07:00:52.324Z,24.10
2018-05-06T07:03:18.699Z,24.40
2018-05-06T07:05:45.815Z,24.50
2018-05-06T07:08:12.373Z,24.60
2018-05-06T07:10:39.492Z,24.90
2018-05-06T07:13:05.901Z,24.90
2018-05-06T07:15:32.282Z,24.90
2018-05-06T07:17:58.661Z,25.00
2018-05-06T07:20:25.066Z,24.90
2018-05-06T07:22:52.206Z,25.00
2018-05-06T07:25:19.302Z,25.20
2018-05-06T07:27:46.423Z,25.40
2018-05-06T07:30:13.514Z,25.50
2018-05-06T07:32:39.853Z,25.50
2018-05-06T07:35:06.254Z,25.50
2018-05-06T07:37:32.610Z,25.40
2018-05-06T07:39:58.982Z,25.90
2018-05-06T07:42:26.105Z,25.90
2018-05-06T07:44:52.466Z,25.80
2018-05-06T07:47:19.631Z,25.80
2018-05-06T07:49:46.011Z,25.70
2018-05-06T07:52:12.369Z,25.90
2018-05-06T07:54:39.787Z,26.20
2018-05-06T07:57:06.147Z,26.10
2018-05-06T07:59:32.499Z,26.30
2018-05-06T08:01:58.878Z,26.30
2018-05-06T08:04:25.291Z,26.30
2018-05-06T08:06:51.707Z,26.40
2018-05-06T08:09:18.811Z,26.70
2018-05-06T08:11:45.972Z,26.90
2018-05-06T08:14:12.758Z,26.80
2018-05-06T08:16:39.135Z,27.10
2018-05-06T08:19:05.606Z,27.10
2018-05-06T08:21:32.743Z,27.30
2018-05-06T08:23:59.417Z,27.20
2018-05-06T08:26:25.807Z,27.20
2018-05-06T08:28:52.198Z,27.10
2018-05-06T08:31:18.610Z,27.10
2018-05-06T08:33:45.974Z,27.30
2018-05-06T08:36:12.462Z,27.30
2018-05-06T08:38:38.949Z,27.40
2018-05-06T08:41:05.314Z,27.50
2018-05-06T08:43:31.693Z,27.60
2018-05-06T08:45:58.125Z,27.70
2018-05-06T08:48:24.902Z,28.00
2018-05-06T08:50:52.043Z,28.40
2018-05-06T08:53:19.404Z,28.70
2018-05-06T08:55:45.777Z,28.70
2018-05-06T08:58:12.325Z,28.90
2018-05-06T09:00:39.527Z,29.10
2018-05-06T09:03:06.186Z,29.10
2018-05-06T09:05:32.565Z,29.40
2018-05-06T09:07:58.970Z,29.50
2018-05-06T09:10:26.150Z,29.60
2018-05-06T09:12:52.538Z,29.60
2018-05-06T09:15:18.965Z,29.90
2018-05-06T09:17:46.083Z,30.10
2018-05-06T09:20:12.539Z,30.10
2018-05-06T09:22:38.946Z,30.30
2018-05-06T09:25:05.434Z,30.10
2018-05-06T09:27:31.777Z,30.20
2018-05-06T09:29:58.892Z,30.10
2018-05-06T09:32:25.275Z,30.10
2018-05-06T09:34:51.670Z,30.20
2018-05-06T09:37:18.030Z,30.20
2018-05-06T09:39:44.417Z,30.20
2018-05-06T09:42:10.797Z,30.30
2018-05-06T09:44:37.177Z,30.30
2018-05-06T09:47:03.594Z,30.30
2018-05-06T09:49:30.689Z,30.70
2018-05-06T09:51:57.874Z,30.80
2018-05-06T09:54:24.258Z,30.80
2018-05-06T09:56:50.831Z,30.70
2018-05-06T09:59:17.275Z,30.60
2018-05-06T10:01:43.729Z,30.70
2018-05-06T10:04:10.107Z,30.80
2018-05-06T10:06:37.267Z,31.00
2018-05-06T10:09:04.660Z,31.00
2018-05-06T10:11:31.022Z,31.20
2018-05-06T10:13:58.388Z,31.30
2018-05-06T10:16:24.755Z,31.50
2018-05-06T10:18:51.142Z,31.60
2018-05-06T10:21:17.542Z,31.60
2018-05-06T10:23:43.987Z,31.50
2018-05-06T10:26:10.426Z,31.50
2018-05-06T10:28:37.689Z,31.50
2018-05-06T10:31:04.054Z,31.60
2018-05-06T10:33:31.170Z,31.60
2018-05-06T10:35:57.525Z,31.60
2018-05-06T10:38:24.019Z,31.70
2018-05-06T10:40:51.058Z,31.90
2018-05-06T10:43:17.498Z,31.90
2018-05-06T10:45:44.032Z,32.00
2018-05-06T10:48:10.410Z,32.00
2018-05-06T10:50:37.522Z,31.90
2018-05-06T10:53:03.955Z,31.90
2018-05-06T10:55:30.317Z,32.00
2018-05-06T10:57:56.755Z,32.00
2018-05-06T11:00:23.141Z,32.10
2018-05-06T11:02:49.592Z,32.30
2018-05-06T11:05:16.723Z,32.40
2018-05-06T11:07:43.226Z,32.40
2018-05-06T11:10:09.637Z,32.40
2018-05-06T11:12:36.749Z,32.60
2018-05-06T11:15:03.138Z,32.60
2018-05-06T11:17:29.497Z,32.70
2018-05-06T11:19:55.818Z,32.70
2018-05-06T11:22:22.170Z,32.70
2018-05-06T11:24:48.686Z,32.90
2018-05-06T11:27:15.092Z,33.10
2018-05-06T11:29:42.225Z,33.20
2018-05-06T11:32:08.645Z,33.20
2018-05-06T11:34:35.058Z,33.50
2018-05-06T11:37:01.428Z,33.60
2018-05-06T11:39:28.574Z,33.60
2018-05-06T11:41:54.926Z,33.60
2018-05-06T11:44:22.026Z,33.90
2018-05-06T11:46:48.469Z,33.90
2018-05-06T11:49:14.816Z,34.10
2018-05-06T11:51:41.189Z,34.20
2018-05-06T11:54:07.631Z,34.20
2018-05-06T11:56:34.026Z,34.40
2018-05-06T11:59:01.121Z,34.50
2018-05-06T12:01:27.531Z,34.50
2018-05-06T12:03:54.072Z,34.50
2018-05-06T12:06:20.493Z,34.60
2018-05-06T12:08:47.590Z,34.70
2018-05-06T12:11:14.075Z,34.80
2018-05-06T12:13:40.506Z,34.90
2018-05-06T12:16:06.928Z,35.00
2018-05-06T12:18:34.034Z,35.10
2018-05-06T12:21:00.406Z,35.10
2018-05-06T12:23:27.591Z,35.30
2018-05-06T12:25:53.957Z,35.30
2018-05-06T12:28:20.370Z,35.30
2018-05-06T12:30:46.749Z,35.30
2018-05-06T12:33:14.235Z,35.40
2018-05-06T12:35:40.633Z,35.40
2018-05-06T12:38:07.001Z,35.50
2018-05-06T12:40:33.397Z,35.50
2018-05-06T12:42:59.866Z,35.60
2018-05-06T12:45:26.208Z,35.60
2018-05-06T12:47:52.682Z,35.70
2018-05-06T12:50:19.106Z,35.80
2018-05-06T12:52:45.571Z,35.70
2018-05-06T12:55:12.741Z,35.70
2018-05-06T12:57:39.126Z,35.70
2018-05-06T13:00:05.541Z,35.80
2018-05-06T13:02:31.930Z,35.70
2018-05-06T13:04:59.073Z,35.60
2018-05-06T13:07:26.173Z,35.50
2018-05-06T13:09:52.549Z,35.40
2018-05-06T13:12:19.715Z,35.50
2018-05-06T13:14:46.817Z,35.30
2018-05-06T13:17:13.192Z,35.30
2018-05-06T13:19:40.293Z,35.40
2018-05-06T13:22:06.733Z,35.40
2018-05-06T13:24:33.215Z,35.30
2018-05-06T13:26:59.771Z,35.20
2018-05-06T13:29:26.157Z,35.10
2018-05-06T13:31:52.598Z,34.90
2018-05-06T13:34:19.726Z,34.60
2018-05-06T13:36:46.150Z,34.60
2018-05-06T13:39:12.510Z,34.50
2018-05-06T13:41:39.618Z,34.20
2018-05-06T13:44:06.049Z,34.10
2018-05-06T13:46:32.473Z,34.00
2018-05-06T13:48:58.894Z,33.80
2018-05-06T13:51:25.286Z,33.50
2018-05-06T13:53:51.885Z,33.20
2018-05-06T13:56:18.301Z,33.10
2018-05-06T13:58:45.410Z,32.50
2018-05-06T14:01:12.544Z,32.20
2018-05-06T14:03:39.259Z,32.20
2018-05-06T14:06:05.662Z,32.00
2018-05-06T14:08:32.021Z,31.70
2018-05-06T14:10:58.390Z,31.50
2018-05-06T14:13:25.060Z,31.20
2018-05-06T14:15:51.502Z,31.00
2018-05-06T14:18:17.904Z,30.80
2018-05-06T14:20:44.317Z,30.90
2018-05-06T14:23:10.914Z,30.40
2018-05-06T14:25:37.321Z,30.30
2018-05-06T14:28:03.762Z,30.20
2018-05-06T14:30:30.130Z,30.20
2018-05-06T14:32:56.739Z,30.10
2018-05-06T14:35:23.133Z,30.00
2018-05-06T14:37:50.260Z,29.80
2018-05-06T14:40:17.450Z,29.70
2018-05-06T14:42:43.902Z,29.70
2018-05-06T14:45:10.626Z,29.60
2018-05-06T14:47:49.174Z,29.50
2018-05-06T14:50:15.673Z,29.60
2018-05-06T14:52:42.798Z,29.50
2018-05-06T14:55:09.411Z,29.50
2018-05-06T14:57:36.789Z,29.50
2018-05-06T15:00:03.205Z,29.50
2018-05-06T15:02:29.568Z,29.60
2018-05-06T15:04:56.764Z,29.40
2018-05-06T15:07:23.267Z,29.40
2018-05-06T15:09:50.372Z,29.40
2018-05-06T15:12:16.754Z,29.40
2018-05-06T15:14:43.197Z,29.40
2018-05-06T15:17:09.620Z,29.50
2018-05-06T15:19:35.989Z,29.60
2018-05-06T15:22:02.403Z,29.60
2018-05-06T15:24:29.346Z,29.90
2018-05-06T15:29:36.774Z,29.90
2018-05-06T15:32:03.146Z,29.80
2018-05-06T15:34:29.566Z,29.70
2018-05-06T15:36:55.945Z,29.70
2018-05-06T15:39:22.341Z,29.50
2018-05-06T15:41:48.757Z,29.60
2018-05-06T15:44:15.605Z,29.60
2018-05-06T15:46:41.998Z,29.50
2018-05-06T15:49:08.482Z,29.40
2018-05-06T15:51:34.934Z,29.50
2018-05-06T15:54:02.266Z,29.40
2018-05-06T15:56:28.671Z,29.40
2018-05-06T15:58:55.085Z,29.50
2018-05-06T16:01:21.647Z,29.40
2018-05-06T16:04:00.576Z,29.20
2018-05-06T16:06:26.992Z,29.10
2018-05-06T16:08:53.350Z,29.10
2018-05-06T16:11:19.778Z,29.00
2018-05-06T16:13:47.656Z,28.70
2018-05-06T16:16:14.066Z,28.70
2018-05-06T16:18:40.418Z,28.70
2018-05-06T16:21:06.777Z,28.60
2018-05-06T16:23:33.241Z,28.50
2018-05-06T16:25:59.618Z,28.60
2018-05-06T16:28:26.008Z,28.50
2018-05-06T16:30:52.424Z,28.30
2018-05-06T16:33:19.077Z,28.20
2018-05-06T16:35:45.459Z,28.10
2018-05-06T16:38:11.821Z,28.00
2018-05-06T16:40:38.314Z,27.90
2018-05-06T16:43:04.909Z,27.90
2018-05-06T16:45:31.330Z,27.90
2018-05-06T16:47:57.697Z,27.80
2018-05-06T16:50:24.270Z,27.70
2018-05-06T16:52:51.418Z,27.60
2018-05-06T16:55:18.560Z,27.50
2018-05-06T16:57:44.957Z,27.50
2018-05-06T17:00:11.386Z,27.30
2018-05-06T17:02:37.762Z,27.40
2018-05-06T17:05:04.953Z,27.50
2018-05-06T17:07:31.362Z,27.50
2018-05-06T17:09:58.461Z,27.40
2018-05-06T17:12:24.845Z,27.40
2018-05-06T17:14:52.214Z,27.00
2018-05-06T17:17:18.877Z,26.90
2018-05-06T17:19:45.255Z,26.80
2018-05-06T17:22:12.378Z,26.80
2018-05-06T17:24:39.098Z,26.80
2018-05-06T17:27:05.494Z,26.60
2018-05-06T17:29:32.641Z,26.50
2018-05-06T17:31:59.794Z,26.40
2018-05-06T17:34:26.946Z,26.20
2018-05-06T17:36:54.058Z,26.20
2018-05-06T17:39:20.461Z,26.20
2018-05-06T17:41:46.919Z,26.20
2018-05-06T17:44:13.309Z,26.20
2018-05-06T17:46:39.709Z,26.10
2018-05-06T17:49:06.890Z,26.00
2018-05-06T17:51:33.325Z,26.10
2018-05-06T17:53:59.698Z,25.80
2018-05-06T17:56:26.070Z,25.70
2018-05-06T17:58:53.346Z,25.50
2018-05-06T18:01:19.789Z,25.50
2018-05-06T18:03:46.182Z,25.40
2018-05-06T18:06:12.593Z,25.30
2018-05-06T18:08:38.957Z,25.10
2018-05-06T18:11:05.338Z,25.00
2018-05-06T18:13:31.753Z,24.90
2018-05-06T18:15:58.133Z,24.90
2018-05-06T18:18:25.253Z,24.70
2018-05-06T18:20:51.754Z,24.70
2018-05-06T18:23:18.402Z,24.60
2018-05-06T18:25:44.778Z,24.50
2018-05-06T18:28:11.182Z,24.40
2018-05-06T18:30:37.538Z,24.30
2018-05-06T18:33:04.275Z,24.30
2018-05-06T18:35:30.703Z,24.20
2018-05-06T18:37:57.093Z,24.10
2018-05-06T18:40:23.489Z,24.00
2018-05-06T18:42:50.682Z,23.90
2018-05-06T18:45:17.146Z,23.90
2018-05-06T18:47:43.538Z,23.80
2018-05-06T18:50:09.921Z,23.70
2018-05-06T18:52:36.320Z,23.60
2018-05-06T18:55:02.771Z,23.50
2018-05-06T18:57:29.118Z,23.50
2018-05-06T18:59:55.526Z,23.30
2018-05-06T19:02:21.909Z,23.10
2018-05-06T19:04:48.758Z,23.10
2018-05-06T19:07:16.022Z,22.90
2018-05-06T19:09:42.408Z,22.90
2018-05-06T19:12:08.837Z,22.80
2018-05-06T19:14:36.245Z,22.70
2018-05-06T19:17:03.231Z,22.70
2018-05-06T19:19:29.625Z,22.70
2018-05-06T19:21:55.966Z,22.70
2018-05-06T19:24:22.376Z,22.60
2018-05-06T19:26:49.496Z,22.60
2018-05-06T19:29:15.921Z,22.50
2018-05-06T19:31:42.302Z,22.50
2018-05-06T19:34:09.203Z,22.80
2018-05-06T19:36:36.534Z,22.70
2018-05-06T19:39:02.983Z,22.50
2018-05-06T19:41:29.366Z,22.60
2018-05-06T19:43:55.757Z,22.70
2018-05-06T19:46:22.224Z,22.70
2018-05-06T19:48:48.841Z,22.70
2018-05-06T19:51:15.934Z,22.80
2018-05-06T19:53:42.329Z,22.80
2018-05-06T19:56:09.478Z,22.60
2018-05-06T19:58:36.595Z,22.50
2018-05-06T20:01:02.985Z,22.50
2018-05-06T20:03:29.465Z,22.40
2018-05-06T20:05:55.910Z,22.50
2018-05-06T20:08:23.021Z,22.30
2018-05-06T20:10:49.377Z,22.30
2018-05-06T20:13:16.545Z,22.30
2018-05-06T20:15:42.909Z,22.30
2018-05-06T20:18:09.345Z,22.40
2018-05-06T20:20:35.722Z,22.40
2018-05-06T20:23:02.099Z,22.30
2018-05-06T20:25:28.474Z,22.30
2018-05-06T20:27:54.874Z,22.10
2018-05-06T20:30:21.261Z,22.00
2018-05-06T20:32:47.690Z,21.90
2018-05-06T20:35:14.362Z,21.80
2018-05-06T20:37:40.730Z,21.80
2018-05-06T20:40:07.110Z,21.70
2018-05-06T20:42:34.218Z,21.70
2018-05-06T20:45:00.818Z,21.70
2018-05-06T20:47:27.349Z,21.70
2018-05-06T20:49:54.481Z,21.80
2018-05-06T20:52:20.861Z,21.70
2018-05-06T20:54:47.277Z,21.70
2018-05-06T20:57:13.638Z,21.70
2018-05-06T20:59:40.044Z,21.50
2018-05-06T21:02:06.430Z,21.40
2018-05-06T21:04:33.117Z,21.30
2018-05-06T21:06:59.489Z,21.20
2018-05-06T21:09:26.010Z,21.20
2018-05-06T21:11:52.536Z,21.20
2018-05-06T21:14:18.977Z,21.00
2018-05-06T21:16:45.382Z,20.90
2018-05-06T21:19:11.779Z,20.70
2018-05-06T21:21:38.237Z,20.90
2018-05-06T21:24:04.678Z,20.90
2018-05-06T21:26:46.003Z,20.90
2018-05-06T21:29:12.391Z,20.70
2018-05-06T21:31:38.850Z,20.50
2018-05-06T21:34:05.407Z,20.40
2018-05-06T21:36:31.786Z,20.30
2018-05-06T21:38:58.202Z,20.20
2018-05-06T21:41:24.625Z,20.10
2018-05-06T21:43:52.809Z,20.00
2018-05-06T21:46:19.982Z,20.10
2018-05-06T21:48:46.463Z,20.10
2018-05-06T21:51:13.543Z,19.90
2018-05-06T21:53:40.116Z,19.90
2018-05-06T21:56:06.601Z,19.80
2018-05-06T21:58:32.949Z,19.90
2018-05-06T22:00:59.318Z,19.80
2018-05-06T22:03:26.082Z,19.90
2018-05-06T22:05:52.492Z,19.90
2018-05-06T22:08:19.049Z,19.80
2018-05-06T22:10:46.179Z,19.60
2018-05-06T22:13:12.719Z,19.60
2018-05-06T22:15:39.134Z,19.50
2018-05-06T22:18:05.509Z,19.60
2018-05-06T22:20:31.850Z,19.50
2018-05-06T22:22:58.293Z,19.50
2018-05-06T22:25:24.693Z,19.50
2018-05-06T22:27:51.189Z,19.30
2018-05-06T22:30:17.786Z,19.40
2018-05-06T22:32:44.537Z,19.20
2018-05-06T22:35:11.718Z,19.30
2018-05-06T22:37:38.151Z,19.30
2018-05-06T22:40:04.504Z,19.20
2018-05-06T22:42:30.871Z,19.30
2018-05-06T22:44:57.260Z,19.20
2018-05-06T22:47:23.660Z,19.00
2018-05-06T22:49:50.842Z,18.90
2018-05-06T22:52:17.194Z,18.80
2018-05-06T22:54:43.522Z,19.00
2018-05-06T22:57:09.961Z,18.90
2018-05-06T22:59:36.385Z,18.90
2018-05-06T23:02:02.722Z,18.80
2018-05-06T23:04:29.286Z,18.80
2018-05-06T23:06:55.661Z,18.80
2018-05-06T23:09:21.970Z,18.80
2018-05-06T23:11:49.073Z,18.60
2018-05-06T23:14:15.445Z,18.50
2018-05-06T23:16:41.783Z,18.50
2018-05-06T23:19:08.118Z,18.40
2018-05-06T23:21:35.254Z,18.20
2018-05-06T23:24:01.576Z,18.20
2018-05-06T23:26:28.063Z,18.20
2018-05-06T23:28:55.162Z,18.10
2018-05-06T23:31:21.609Z,18.00
2018-05-06T23:33:48.461Z,18.00
2018-05-06T23:36:14.799Z,17.90
2018-05-06T23:38:41.123Z,17.80
2018-05-06T23:41:07.453Z,17.70
2018-05-06T23:43:33.885Z,17.70
2018-05-06T23:46:00.211Z,17.60
2018-05-06T23:48:26.537Z,17.50
2018-05-06T23:50:53.657Z,17.30
2018-05-06T23:53:20.538Z,17.40
2018-05-06T23:55:46.869Z,17.30
2018-05-06T23:58:13.233Z,17.30
